MMVR/VER METAR and TAF weather

Enter ICAO airport designator
Station Type Date Time Source
MMVR METAR 2020/01/18 23:44 UTC NOAA

MMVR 182344Z 36007KT 6SM FEW010 SCT030 BKN070 24/22 A3005 RMK SLP142 57006 953 8/830 HZY DSNT TCU E


Station Type Date Time Source
MMVR Decoded METAR 2020/01/18 23:44 UTC NOAA

Veracruz / Las Bajadas / General Heriberto Jara, Mexico (MMVR) 19-09N 096-11W
Jan 18, 2020 - 06:44 PM EST / 2020.01.18 2344 UTC
Wind: from the N (360 degrees) at 8 MPH (7 KT):0
Visibility: 6 mile(s):0
Sky conditions: mostly cloudy
Weather: Towering cumulus clouds observed
Temperature: 75 F (24 C)
Dew Point: 71 F (22 C)
Relative Humidity: 88%
Pressure (altimeter): 30.05 in. Hg (1017 hPa)
Pressure tendency: 0.02 inches (0.6 hPa) lower than three hours ago
ob: MMVR 182344Z 36007KT 6SM FEW010 SCT030 BKN070 24/22 A3005 RMK SLP142 57006 953 8/830 HZY DSNT TCU E
cycle: 23

Station Type Date Time Source
MMVR TAF 2020/01/18 22:58 UTC NOAA

TAF
AMD MMVR 182153Z 1822/1918 02010KT P6SM SCT030 OVC060 TX25/1918Z TN19/1912Z
FM190300 34006KT P6SM BKN030 OVC060
FM190600 34006KT 5SM RA BKN020 OVC060
TEMPO 1910/1914 3SM RA OVC010

Example: see airport list